Dirección General De Aeronáutica Civil

Dirección Meteorológica de Chile - Servicios Climáticos

Informe General de Control de Calidad de la Estación

Listado de niveles de control de calidad para algunos parámetros
Estación Marchigüe (340136)
Fecha de Revisión de los datos :

Elementos

Registros Niveles de Control Total
Nivel 0 Nivel 1 Nivel 2 Nivel 3 Errores Porcentaje
01 Temperatura del Aire Seco 35.650 0 . 76 0.21 % 0 . 0 . 76 0.21 %
02 Temperatura de Rocío 35.645 0 . 0 . 0 . 0 . 0 0.00 %
03 Humedad Relativa del Aire 126.557 0 . 0 . 0 . 0 . 0 0.00 %
04 Temperatura Máxima PM 1.344 0 . 0 . 0 . 0 . 0 0.00 %
05 Temperatura Mínima AM 1.337 0 . 0 . 1 0.07 % 0 . 1 0.07 %
06 Agua Caida, Acumulada 6 Horas 21.815 0 . 0 . 0 . 0 . 0 0.00 %
07 Presión Atm. a Nivel de Estación (QFE) 126.123 0 . 0 . 0 . 0 . 0 0.00 %
08 Presión Atm. a Nivel Medio del Mar (QFF) 31.908 0 . 0 . 0 . 0 . 0 0.00 %
09 Presión Atm. Estándar OACI (QNH) 31.908 0 . 0 . 0 . 0 . 0 0.00 %

Totales

412.287 . 0.0000 % . 0.0184 % . 0.0002 % . 0.0000 % 77 0.0187 %

Detalle de Errores Encontrados

Nivel Fecha del Dato Descripción Información Error Fecha Ingreso
1 2019-10-01 12:00:00 Ts debe ser mayor o igual a Td Ts=-1.6 - Td=3.8 2023-10-28 04:02:00
1 2019-10-01 13:00:00 Ts debe ser mayor o igual a Td Ts=4.4 - Td=5.5 2023-10-28 04:02:00
1 2019-10-01 14:00:00 Ts debe ser mayor o igual a Td Ts=6.3 - Td=8.3 2023-10-28 04:02:00
1 2019-10-02 11:00:00 Ts debe ser mayor o igual a Td Ts=-1.6 - Td=-0.9 2023-10-28 04:02:00
1 2019-10-02 12:00:00 Ts debe ser mayor o igual a Td Ts=-0.3 - Td=2.5 2023-10-28 04:02:00
1 2019-10-02 13:00:00 Ts debe ser mayor o igual a Td Ts=3.4 - Td=6.0 2023-10-28 04:02:00
1 2019-10-03 11:00:00 Ts debe ser mayor o igual a Td Ts=0.4 - Td=3.0 2023-10-28 04:02:00
1 2019-10-03 12:00:00 Ts debe ser mayor o igual a Td Ts=3.6 - Td=4.6 2023-10-28 04:02:00
1 2019-10-03 13:00:00 Ts debe ser mayor o igual a Td Ts=6.8 - Td=7.8 2023-10-28 04:02:00
1 2019-10-04 11:00:00 Ts debe ser mayor o igual a Td Ts=-0.9 - Td=0.7 2023-10-28 04:02:00
1 2019-10-04 12:00:00 Ts debe ser mayor o igual a Td Ts=1.4 - Td=5.4 2023-10-28 04:02:00
1 2019-10-05 08:00:00 Ts debe ser mayor o igual a Td Ts=3.1 - Td=3.3 2023-10-28 04:02:00
1 2019-10-05 11:00:00 Ts debe ser mayor o igual a Td Ts=0.1 - Td=1.5 2023-10-28 04:02:00
1 2019-10-05 12:00:00 Ts debe ser mayor o igual a Td Ts=2.6 - Td=5.3 2023-10-28 04:02:00
1 2019-10-06 11:00:00 Ts debe ser mayor o igual a Td Ts=2.1 - Td=3.7 2023-10-28 04:02:00
1 2019-10-06 12:00:00 Ts debe ser mayor o igual a Td Ts=4.7 - Td=6.9 2023-10-28 04:02:00
1 2019-10-07 08:00:00 Ts debe ser mayor o igual a Td Ts=8.4 - Td=8.5 2023-10-28 04:02:00
1 2019-10-07 12:00:00 Ts debe ser mayor o igual a Td Ts=7.1 - Td=10.3 2023-10-28 04:02:00
1 2019-10-08 11:00:00 Ts debe ser mayor o igual a Td Ts=3.8 - Td=6.3 2023-10-28 04:02:00
1 2019-10-10 12:00:00 Ts debe ser mayor o igual a Td Ts=8.4 - Td=8.9 2023-10-28 04:02:00
1 2019-10-11 12:00:00 Ts debe ser mayor o igual a Td Ts=10.3 - Td=10.6 2023-10-28 04:02:00
1 2019-10-13 12:00:00 Ts debe ser mayor o igual a Td Ts=10.1 - Td=10.5 2023-10-28 04:02:00
1 2019-10-15 11:00:00 Ts debe ser mayor o igual a Td Ts=8.1 - Td=9.2 2023-10-28 04:02:00
1 2019-10-15 12:00:00 Ts debe ser mayor o igual a Td Ts=10.6 - Td=11.1 2023-10-28 04:02:00
1 2019-10-16 11:00:00 Ts debe ser mayor o igual a Td Ts=4.9 - Td=5.0 2023-10-28 04:02:00
1 2019-10-16 12:00:00 Ts debe ser mayor o igual a Td Ts=5.9 - Td=8.6 2023-10-28 04:02:00
1 2019-10-18 11:00:00 Ts debe ser mayor o igual a Td Ts=1.8 - Td=5.6 2023-10-28 04:02:00
1 2019-10-18 12:00:00 Ts debe ser mayor o igual a Td Ts=6.7 - Td=8.0 2023-10-28 04:02:00
1 2019-10-19 12:00:00 Ts debe ser mayor o igual a Td Ts=7.1 - Td=8.2 2023-10-28 04:02:00
1 2019-10-21 11:00:00 Ts debe ser mayor o igual a Td Ts=3.8 - Td=6.8 2023-10-28 04:02:00
1 2019-10-22 11:00:00 Ts debe ser mayor o igual a Td Ts=3.9 - Td=4.9 2023-10-28 04:02:00
1 2019-10-23 11:00:00 Ts debe ser mayor o igual a Td Ts=2.0 - Td=5.9 2023-10-28 04:02:00
1 2019-10-24 12:00:00 Ts debe ser mayor o igual a Td Ts=9.5 - Td=9.6 2023-10-28 04:02:00
1 2019-10-25 11:00:00 Ts debe ser mayor o igual a Td Ts=2.5 - Td=5.5 2023-10-28 04:02:00
1 2019-10-27 11:00:00 Ts debe ser mayor o igual a Td Ts=7.0 - Td=7.1 2023-10-28 04:02:00
1 2019-10-27 12:00:00 Ts debe ser mayor o igual a Td Ts=7.8 - Td=10.9 2023-10-28 04:02:00
1 2019-10-28 11:00:00 Ts debe ser mayor o igual a Td Ts=3.6 - Td=7.2 2023-10-28 04:02:00
1 2019-10-28 12:00:00 Ts debe ser mayor o igual a Td Ts=8.4 - Td=10.3 2023-10-28 04:02:00
1 2019-10-30 11:00:00 Ts debe ser mayor o igual a Td Ts=2.8 - Td=7.2 2023-10-28 04:02:00
1 2019-10-31 11:00:00 Ts debe ser mayor o igual a Td Ts=3.5 - Td=5.5 2023-10-28 04:02:00
1 2019-10-31 12:00:00 Ts debe ser mayor o igual a Td Ts=6.8 - Td=8.1 2023-10-28 04:02:00
1 2019-11-01 11:00:00 Ts debe ser mayor o igual a Td Ts=2.3 - Td=4.4 2023-10-28 04:02:00
1 2019-11-01 12:00:00 Ts debe ser mayor o igual a Td Ts=5.2 - Td=8.7 2023-10-28 04:02:00
1 2019-11-02 11:00:00 Ts debe ser mayor o igual a Td Ts=3.2 - Td=9.7 2023-10-28 04:02:00
1 2019-11-03 11:00:00 Ts debe ser mayor o igual a Td Ts=5.7 - Td=7.6 2023-10-28 04:02:00
1 2019-11-05 11:00:00 Ts debe ser mayor o igual a Td Ts=4.1 - Td=9.1 2023-10-28 04:02:00
1 2019-11-06 11:00:00 Ts debe ser mayor o igual a Td Ts=3.8 - Td=8.1 2023-10-28 04:02:00
1 2019-11-07 11:00:00 Ts debe ser mayor o igual a Td Ts=5.2 - Td=8.5 2023-10-28 04:02:00
1 2019-11-08 11:00:00 Ts debe ser mayor o igual a Td Ts=8.7 - Td=8.9 2023-10-28 04:02:00
1 2019-11-09 11:00:00 Ts debe ser mayor o igual a Td Ts=6.4 - Td=10.9 2023-10-28 04:02:00
1 2019-11-10 11:00:00 Ts debe ser mayor o igual a Td Ts=7.4 - Td=9.0 2023-10-28 04:02:00
1 2019-11-11 10:00:00 Ts debe ser mayor o igual a Td Ts=8.1 - Td=9.5 2023-10-28 04:02:00
1 2019-11-11 11:00:00 Ts debe ser mayor o igual a Td Ts=10.8 - Td=11.5 2023-10-28 04:02:00
1 2019-11-12 11:00:00 Ts debe ser mayor o igual a Td Ts=7.5 - Td=10.5 2023-10-28 04:02:00
1 2019-11-14 11:00:00 Ts debe ser mayor o igual a Td Ts=10.9 - Td=11.6 2023-10-28 04:02:00
1 2019-11-17 08:00:00 Ts debe ser mayor o igual a Td Ts=6.8 - Td=7.4 2023-10-28 04:03:00
1 2019-11-17 11:00:00 Ts debe ser mayor o igual a Td Ts=7.7 - Td=9.7 2023-10-28 04:03:00
1 2019-11-18 11:00:00 Ts debe ser mayor o igual a Td Ts=7.6 - Td=11.3 2023-10-28 04:03:00
1 2019-11-19 11:00:00 Ts debe ser mayor o igual a Td Ts=8.7 - Td=9.3 2023-10-28 04:03:00
1 2019-11-22 10:00:00 Ts debe ser mayor o igual a Td Ts=6.8 - Td=7.1 2023-10-28 04:03:00
1 2019-11-22 11:00:00 Ts debe ser mayor o igual a Td Ts=7.9 - Td=11.8 2023-10-28 04:03:00
1 2019-11-23 10:00:00 Ts debe ser mayor o igual a Td Ts=9.0 - Td=9.3 2023-10-28 04:03:00
1 2019-11-23 11:00:00 Ts debe ser mayor o igual a Td Ts=10.1 - Td=10.4 2023-10-28 04:03:00
1 2019-11-27 11:00:00 Ts debe ser mayor o igual a Td Ts=6.7 - Td=6.9 2023-10-28 04:03:00
1 2019-11-29 10:00:00 Ts debe ser mayor o igual a Td Ts=5.2 - Td=6.0 2023-10-28 04:03:00
1 2019-11-29 11:00:00 Ts debe ser mayor o igual a Td Ts=7.3 - Td=9.5 2023-10-28 04:03:00
1 2019-11-30 10:00:00 Ts debe ser mayor o igual a Td Ts=5.4 - Td=5.5 2023-10-28 04:03:00
1 2019-11-30 11:00:00 Ts debe ser mayor o igual a Td Ts=7.6 - Td=8.5 2023-10-28 04:03:00
1 2019-12-01 10:00:00 Ts debe ser mayor o igual a Td Ts=5.8 - Td=5.9 2023-10-28 04:03:00
1 2019-12-01 11:00:00 Ts debe ser mayor o igual a Td Ts=8.1 - Td=9.2 2023-10-28 04:03:00
1 2019-12-02 11:00:00 Ts debe ser mayor o igual a Td Ts=6.6 - Td=9.6 2023-10-28 04:03:00
1 2019-12-05 11:00:00 Ts debe ser mayor o igual a Td Ts=8.6 - Td=8.9 2023-10-28 04:03:00
1 2019-12-06 11:00:00 Ts debe ser mayor o igual a Td Ts=10.1 - Td=10.4 2023-10-28 04:03:00
1 2019-12-09 08:00:00 Ts debe ser mayor o igual a Td Ts=8.7 - Td=9.4 2023-10-28 04:03:00
1 2019-12-11 11:00:00 Ts debe ser mayor o igual a Td Ts=7.5 - Td=11.4 2023-10-28 04:03:00
1 2019-12-12 11:00:00 Ts debe ser mayor o igual a Td Ts=10.3 - Td=11.7 2023-10-28 04:03:00
Errores del Nivel 76
Nivel Fecha del Dato Descripción Información Error Fecha Ingreso
2 2020-01-23 12:00:00 Temperatura 11.8 del 23-01-2020 05:00, Menor que la Mínima 12.2 23-01-2020 12:00 11.8 -- 12.2 2020-02-10 16:26:00
Errores del Nivel 1
Informe generado el 23-02-2024 09:04
Requerimiento: RE6001